Vining, Iowa
Current Conditions -  °F | °C
As of 11:15 PM on Sunday 19 Oct 2014 (Local Time) from KVTI Reporting Station
Clear Clear  
Wind Chill: 55°   Ceiling: Unl
Heat Index: 55°   Visibility: 10mi
Dew Point: 46°   Wind: 3mph
Humidity: 72%   Direction: 220°SW
Pressure: 29.87"   Gusts: NA
Location:  41.99°N, 92.38°W
Report Text: KVTI 200415Z AUTO 22003KT 10SM CLR 13/08 A2987 RMK AO2 T01300080
Loading
Personal Weather Stations






























Interactive Weather Map
Tropical Storm Tracking
New forecast layout! Learn more

10-Day Weather Forecast

Advertisements
Track Severe Weather on mobile